Time;durP1;ratioP1;P1;durP2;ratioP2;P2;SDS_P1;SDS_P2;PMS_P1;PMS_P2;Temp;Humidity;BMP_temperature;BMP_pressure;BME280_temperature;BME280_humidity;BME280_pressure;Samples;Min_cycle;Max_cycle;Signal;HPM_P1;HPM_P2
2022/11/01 00:00:22;;;;;;;15.13;7.50;;;11.30;99.90;;;;;;4986011;28;20030;-82
2022/11/01 00:02:48;;;;;;;11.30;6.50;;;11.30;99.90;;;;;;4988447;28;20029;-82
2022/11/01 00:05:14;;;;;;;11.38;7.13;;;11.30;99.90;;;;;;4987689;28;20685;-82
2022/11/01 00:07:39;;;;;;;11.25;6.57;;;11.30;99.90;;;;;;4988634;28;20132;-82
2022/11/01 00:10:06;;;;;;;12.20;7.18;;;11.20;99.90;;;;;;4956043;28;20034;-82
2022/11/01 00:12:31;;;;;;;11.73;6.72;;;11.20;99.90;;;;;;4970946;28;20038;-82
2022/11/01 00:14:57;;;;;;;14.20;7.93;;;11.10;99.90;;;;;;4972043;28;20034;-81
2022/11/01 00:17:23;;;;;;;12.85;7.05;;;11.10;99.90;;;;;;4987388;28;20048;-82
2022/11/01 00:19:49;;;;;;;12.02;6.40;;;11.10;99.90;;;;;;4941424;28;20113;-82
2022/11/01 00:22:14;;;;;;;12.23;7.03;;;11.10;99.90;;;;;;4972692;28;20073;-83
2022/11/01 00:24:40;;;;;;;11.48;7.35;;;11.10;99.90;;;;;;4971989;28;20039;-82
2022/11/01 00:27:06;;;;;;;13.60;7.45;;;11.10;99.90;;;;;;4987631;28;20040;-82
2022/11/01 00:29:32;;;;;;;12.82;6.80;;;11.20;99.90;;;;;;4974365;28;20080;-81
2022/11/01 00:31:58;;;;;;;9.88;6.60;;;11.20;99.90;;;;;;4973648;28;20034;-82
2022/11/01 00:34:24;;;;;;;10.95;6.78;;;11.20;99.90;;;;;;4982894;28;20142;-81
2022/11/01 00:36:50;;;;;;;12.57;6.95;;;11.20;99.90;;;;;;4971399;28;20057;-82
2022/11/01 00:39:15;;;;;;;12.25;6.78;;;11.10;99.90;;;;;;4956087;28;20523;-82
2022/11/01 00:41:41;;;;;;;27.13;7.18;;;11.10;99.90;;;;;;4958868;28;20072;-81
2022/11/01 00:44:07;;;;;;;13.55;7.38;;;11.10;99.90;;;;;;4947977;28;20430;-82
2022/11/01 00:46:33;;;;;;;13.00;7.53;;;11.10;99.90;;;;;;4982838;28;20029;-81
2022/11/01 00:48:59;;;;;;;12.52;7.10;;;11.00;99.90;;;;;;5024772;28;20078;-81
2022/11/01 00:51:25;;;;;;;13.23;7.88;;;11.00;99.90;;;;;;4999843;28;20031;-82
2022/11/01 00:53:50;;;;;;;10.77;6.95;;;10.90;99.90;;;;;;4987711;28;20676;-83
2022/11/01 00:56:16;;;;;;;14.48;7.75;;;10.90;99.90;;;;;;4964606;28;20499;-82
2022/11/01 00:58:42;;;;;;;13.60;8.18;;;10.90;99.90;;;;;;5007788;28;20120;-82
2022/11/01 01:01:08;;;;;;;11.93;6.22;;;10.80;99.90;;;;;;4957673;28;20122;-82
2022/11/01 01:03:34;;;;;;;11.85;7.55;;;10.80;99.90;;;;;;5002203;28;20046;-82
2022/11/01 01:06:00;;;;;;;10.57;7.05;;;10.80;99.90;;;;;;4968102;28;20751;-82
2022/11/01 01:08:27;;;;;;;14.88;6.85;;;10.70;99.90;;;;;;4956991;28;20038;-82
2022/11/01 01:10:53;;;;;;;14.68;7.05;;;10.70;99.90;;;;;;5009687;28;20026;-82
2022/11/01 01:13:19;;;;;;;12.45;7.35;;;10.70;99.90;;;;;;4984559;28;20041;-81
2022/11/01 01:15:45;;;;;;;12.07;7.60;;;10.80;99.90;;;;;;4964142;28;20103;-82
2022/11/01 01:18:12;;;;;;;10.48;6.80;;;10.70;99.90;;;;;;5017388;28;20073;-82
2022/11/01 01:20:37;;;;;;;12.13;6.93;;;10.70;99.90;;;;;;4987822;28;20031;-81
2022/11/01 01:23:03;;;;;;;11.57;6.43;;;10.70;99.90;;;;;;4986131;28;20130;-82
2022/11/01 01:25:29;;;;;;;11.30;6.75;;;10.60;99.90;;;;;;4973873;28;20173;-81
2022/11/01 01:27:55;;;;;;;12.02;6.43;;;10.60;99.90;;;;;;4990684;28;20037;-82
2022/11/01 01:30:21;;;;;;;11.32;7.03;;;10.60;99.90;;;;;;5004941;28;20037;-82
2022/11/01 01:32:47;;;;;;;10.70;6.68;;;10.60;99.90;;;;;;4972240;28;20026;-82
2022/11/01 01:35:13;;;;;;;13.05;7.32;;;10.50;99.90;;;;;;4972374;28;20083;-82
2022/11/01 01:37:39;;;;;;;9.38;6.80;;;10.50;99.90;;;;;;4991377;28;20035;-83
2022/11/01 01:40:07;;;;;;;9.80;6.55;;;10.40;99.90;;;;;;4987473;28;20066;-81
2022/11/01 01:42:35;;;;;;;14.25;8.43;;;10.40;99.90;;;;;;5007028;28;20066;-82
2022/11/01 01:45:05;;;;;;;13.90;7.57;;;10.40;99.90;;;;;;4987490;28;20094;-82
2022/11/01 01:47:36;;;;;;;13.50;7.75;;;10.40;99.90;;;;;;5002328;28;20034;-81
2022/11/01 01:50:09;;;;;;;15.07;8.90;;;10.40;99.90;;;;;;4989212;28;20109;-82
2022/11/01 01:52:42;;;;;;;17.48;9.38;;;10.50;99.90;;;;;;4997036;28;20030;-82
2022/11/01 01:55:09;;;;;;;15.40;8.80;;;10.50;99.90;;;;;;4990784;28;20519;-82
2022/11/01 01:57:37;;;;;;;12.77;8.15;;;10.50;99.90;;;;;;5010939;28;20066;-82
2022/11/01 02:00:04;;;;;;;15.93;8.50;;;10.50;99.90;;;;;;4968960;28;20045;-81
2022/11/01 02:02:37;;;;;;;16.00;8.32;;;10.50;99.90;;;;;;4980774;28;20035;-81
2022/11/01 02:05:18;;;;;;;16.48;8.13;;;10.50;99.90;;;;;;4973945;28;20089;-82
2022/11/01 02:07:45;;;;;;;12.70;7.90;;;10.60;99.90;;;;;;5005368;28;20026;-81
2022/11/01 02:10:13;;;;;;;11.38;7.63;;;10.50;99.90;;;;;;4990409;28;20034;-82
2022/11/01 02:12:44;;;;;;;15.40;9.80;;;10.50;99.90;;;;;;4993439;28;20044;-82
2022/11/01 02:15:12;;;;;;;13.90;9.02;;;10.50;99.90;;;;;;4990454;28;20038;-82
2022/11/01 02:17:47;;;;;;;15.55;9.13;;;10.50;99.90;;;;;;4977543;28;20057;-82
2022/11/01 02:20:19;;;;;;;16.80;8.68;;;10.60;99.90;;;;;;5009967;28;20484;-83
2022/11/01 02:23:07;;;;;;;15.35;9.20;;;10.60;99.90;;;;;;5006145;28;20038;-81
2022/11/01 02:26:07;;;;;;;16.83;9.40;;;10.60;99.90;;;;;;4960836;28;20034;-81
2022/11/01 02:28:57;;;;;;;12.10;8.48;;;10.60;99.90;;;;;;4987426;28;20035;-81
2022/11/01 02:31:44;;;;;;;14.40;9.02;;;10.60;99.90;;;;;;5010719;28;20037;-81
2022/11/01 02:34:23;;;;;;;16.65;8.55;;;10.60;99.90;;;;;;4987383;28;20042;-82
2022/11/01 02:37:01;;;;;;;15.77;8.95;;;10.60;99.90;;;;;;4977078;28;20118;-82
2022/11/01 02:39:32;;;;;;;16.05;8.57;;;10.60;99.90;;;;;;5001077;28;20193;-83
2022/11/01 02:42:24;;;;;;;13.80;9.43;;;10.60;99.90;;;;;;4979884;28;20026;-83
2022/11/01 02:45:26;;;;;;;17.20;8.55;;;10.50;99.90;;;;;;5005859;28;20479;-82
2022/11/01 02:47:53;;;;;;;17.33;9.82;;;10.50;99.90;;;;;;4966652;28;20033;-82
2022/11/01 02:50:20;;;;;;;13.07;8.70;;;10.50;99.90;;;;;;4986979;28;20034;-81
2022/11/01 02:52:46;;;;;;;15.77;9.13;;;10.50;99.90;;;;;;5001823;28;20049;-82
2022/11/01 02:55:32;;;;;;;14.63;9.40;;;10.50;99.90;;;;;;4973945;28;20428;-82
2022/11/01 02:58:05;;;;;;;13.23;8.35;;;10.50;99.90;;;;;;4990073;28;20057;-82
2022/11/01 03:00:35;;;;;;;12.77;8.48;;;10.50;99.90;;;;;;5008546;28;20069;-82
2022/11/01 03:03:07;;;;;;;12.93;8.02;;;10.50;99.90;;;;;;4975997;28;20685;-82
2022/11/01 03:05:58;;;;;;;12.43;8.57;;;10.50;99.90;;;;;;5018585;28;20022;-82
2022/11/01 03:08:37;;;;;;;15.38;8.32;;;10.40;99.90;;;;;;4989475;28;20057;-81
2022/11/01 03:11:05;;;;;;;15.00;8.48;;;10.40;99.90;;;;;;4996326;28;20072;-82
2022/11/01 03:13:45;;;;;;;15.38;8.75;;;10.40;99.90;;;;;;5008575;28;20504;-82
2022/11/01 03:16:31;;;;;;;18.10;9.10;;;10.40;99.90;;;;;;5016278;28;20030;-83
2022/11/01 03:19:05;;;;;;;;;;;10.30;99.90;;;;;;4966418;28;20488;-82
2022/11/01 03:21:39;;;;;;;15.80;9.50;;;10.30;99.90;;;;;;5000080;28;20251;-82
2022/11/01 03:24:14;;;;;;;23.38;8.95;;;10.30;99.90;;;;;;4991739;28;20030;-82
2022/11/01 03:26:42;;;;;;;12.88;8.00;;;10.30;99.90;;;;;;5001465;28;20026;-82
2022/11/01 03:29:10;;;;;;;14.98;8.65;;;10.30;99.90;;;;;;4983349;28;20034;-82
2022/11/01 03:31:39;;;;;;;12.82;8.95;;;10.20;99.90;;;;;;4982541;28;20037;-82
2022/11/01 03:34:11;;;;;;;13.25;9.27;;;10.30;99.90;;;;;;4969780;28;20046;-82
2022/11/01 03:36:44;;;;;;;15.85;8.88;;;10.20;99.90;;;;;;4992860;28;20594;-81
2022/11/01 03:39:24;;;;;;;17.40;10.52;;;10.20;99.90;;;;;;4989479;28;20038;-82
2022/11/01 03:41:56;;;;;;;14.82;9.48;;;10.20;99.90;;;;;;4996926;28;20514;-82
2022/11/01 03:44:22;;;;;;;14.85;9.63;;;10.10;99.90;;;;;;4979894;28;20072;-81
2022/11/01 03:46:49;;;;;;;15.48;10.27;;;10.20;99.90;;;;;;4986445;28;20030;-82
2022/11/01 03:49:19;;;;;;;16.67;9.93;;;10.10;99.90;;;;;;5009518;28;20122;-82
2022/11/01 03:51:45;;;;;;;19.77;9.98;;;10.20;99.90;;;;;;4969145;28;20054;-81
2022/11/01 03:54:11;;;;;;;21.40;10.27;;;10.10;99.90;;;;;;5005451;28;20035;-81
2022/11/01 03:56:40;;;;;;;14.98;9.70;;;10.10;99.90;;;;;;4997294;28;20045;-82
2022/11/01 03:59:09;;;;;;;14.80;8.80;;;10.10;99.90;;;;;;4986484;28;20038;-81
2022/11/01 04:01:35;;;;;;;15.68;9.18;;;10.10;99.90;;;;;;4970941;28;20073;-82
2022/11/01 04:04:01;;;;;;;14.00;9.55;;;10.20;99.90;;;;;;4989029;28;20046;-82
2022/11/01 04:06:27;;;;;;;12.65;9.02;;;10.10;99.90;;;;;;5006431;28;20442;-81
2022/11/01 04:08:53;;;;;;;14.88;8.48;;;10.10;99.90;;;;;;4991172;28;20034;-81
2022/11/01 04:11:19;;;;;;;21.13;9.98;;;10.10;99.90;;;;;;5005941;28;20237;-81
2022/11/01 04:13:48;;;;;;;12.98;9.60;;;10.20;99.90;;;;;;4989171;28;20073;-81
2022/11/01 04:21:42;;;;;;;14.88;9.00;;;10.10;99.90;;;;;;4975739;28;20035;-81
2022/11/01 04:24:09;;;;;;;14.80;9.20;;;10.10;99.90;;;;;;4988374;28;20038;-81
2022/11/01 04:26:35;;;;;;;17.20;9.50;;;10.10;99.90;;;;;;4982503;28;20533;-81
2022/11/01 04:29:00;;;;;;;17.25;9.32;;;10.10;99.90;;;;;;4956819;28;20030;-81
2022/11/01 04:31:29;;;;;;;15.88;9.77;;;10.10;99.90;;;;;;4983256;28;20167;-81
2022/11/01 04:33:56;;;;;;;17.45;10.48;;;10.10;99.90;;;;;;4975864;28;20093;-81
2022/11/01 04:36:22;;;;;;;19.70;10.25;;;10.10;99.90;;;;;;4955041;28;20392;-82
2022/11/01 04:38:50;;;;;;;18.73;9.77;;;10.10;99.90;;;;;;4989104;28;20030;-81
2022/11/01 04:41:18;;;;;;;16.50;10.05;;;10.10;99.90;;;;;;4981638;28;20442;-82
2022/11/01 04:43:46;;;;;;;14.23;9.95;;;10.10;99.90;;;;;;5005060;28;20041;-82
2022/11/01 04:46:12;;;;;;;20.02;10.88;;;10.10;99.90;;;;;;4979521;28;20026;-82
2022/11/01 04:48:38;;;;;;;14.00;9.68;;;10.20;99.90;;;;;;4989974;28;20125;-82
2022/11/01 04:51:03;;;;;;;13.93;9.32;;;10.20;99.90;;;;;;4991178;28;20097;-82
2022/11/01 04:53:29;;;;;;;15.18;9.23;;;10.20;99.90;;;;;;4971819;28;20133;-83
2022/11/01 04:55:55;;;;;;;16.10;9.45;;;10.20;99.90;;;;;;4994610;28;20034;-82
2022/11/01 04:58:21;;;;;;;17.52;10.35;;;10.10;99.90;;;;;;5024494;28;20045;-82
2022/11/01 05:00:46;;;;;;;20.40;10.90;;;10.10;99.90;;;;;;5015934;28;20033;-83
2022/11/01 05:03:12;;;;;;;16.73;10.25;;;10.20;99.90;;;;;;4969626;28;20046;-84
2022/11/01 05:05:38;;;;;;;13.55;9.90;;;10.10;99.90;;;;;;4975824;28;20026;-81
2022/11/01 05:08:07;;;;;;;15.18;10.65;;;10.10;99.90;;;;;;4963773;28;20026;-81
2022/11/01 05:10:34;;;;;;;13.27;10.27;;;10.10;99.90;;;;;;4976160;28;20045;-82
2022/11/01 05:13:01;;;;;;;16.45;10.82;;;10.10;99.90;;;;;;4992407;28;20029;-81
2022/11/01 05:15:26;;;;;;;20.77;10.52;;;10.20;99.90;;;;;;4994600;28;20038;-81
2022/11/01 05:17:52;;;;;;;22.50;10.10;;;10.20;99.90;;;;;;5000129;28;20038;-82
2022/11/01 05:20:19;;;;;;;17.40;11.20;;;10.10;99.90;;;;;;5007668;28;20031;-81
2022/11/01 05:22:44;;;;;;;15.82;10.60;;;10.20;99.90;;;;;;4995612;28;20091;-81
2022/11/01 05:25:10;;;;;;;14.82;10.52;;;10.20;99.90;;;;;;5028084;28;20025;-82
2022/11/01 05:27:37;;;;;;;16.70;11.02;;;10.20;99.90;;;;;;4960187;28;20030;-81
2022/11/01 05:30:04;;;;;;;17.88;11.13;;;10.30;99.90;;;;;;4976715;28;20031;-81
2022/11/01 05:32:31;;;;;;;17.52;10.48;;;10.30;99.90;;;;;;5018375;28;20062;-82
2022/11/01 05:34:56;;;;;;;15.00;9.90;;;10.30;99.90;;;;;;4968726;28;20386;-82
2022/11/01 05:37:22;;;;;;;19.48;10.27;;;10.40;99.90;;;;;;4989780;28;20035;-82
2022/11/01 05:39:48;;;;;;;18.85;10.65;;;10.30;99.90;;;;;;4969449;28;20159;-82
2022/11/01 05:42:13;;;;;;;14.90;10.48;;;10.40;99.90;;;;;;4983403;28;20039;-82
2022/11/01 05:44:39;;;;;;;17.35;10.40;;;10.30;99.90;;;;;;4996587;28;20115;-82
2022/11/01 05:47:05;;;;;;;19.45;11.82;;;10.30;99.90;;;;;;4980894;28;20084;-82
2022/11/01 05:49:31;;;;;;;15.80;10.60;;;10.30;99.90;;;;;;4982606;28;20045;-82
2022/11/01 05:51:57;;;;;;;18.30;11.35;;;10.30;99.90;;;;;;4997804;28;20040;-82
2022/11/01 05:54:23;;;;;;;13.75;10.20;;;10.40;99.90;;;;;;4979744;28;20491;-81
2022/11/01 05:56:48;;;;;;;18.05;11.13;;;10.30;99.90;;;;;;4982870;28;20470;-82
2022/11/01 05:59:14;;;;;;;21.40;12.50;;;10.30;99.90;;;;;;4976408;28;20040;-83
2022/11/01 06:01:40;;;;;;;19.27;11.93;;;10.30;99.90;;;;;;4992058;28;20510;-81
2022/11/01 06:04:06;;;;;;;15.13;11.00;;;10.30;99.90;;;;;;4988607;28;20031;-82
2022/11/01 06:06:32;;;;;;;19.38;11.65;;;10.40;99.90;;;;;;5014660;28;20026;-84
2022/11/01 06:08:59;;;;;;;19.00;12.20;;;10.40;99.90;;;;;;5027788;28;20833;-81
2022/11/01 06:11:25;;;;;;;17.70;10.75;;;10.30;99.90;;;;;;5000934;28;20117;-82
2022/11/01 06:13:53;;;;;;;18.85;11.65;;;10.40;99.90;;;;;;4958901;28;20149;-82
2022/11/01 06:16:19;;;;;;;18.70;12.25;;;10.30;99.90;;;;;;4991643;28;20065;-82
2022/11/01 06:18:44;;;;;;;18.67;11.35;;;10.30;99.90;;;;;;4974646;28;20039;-82
2022/11/01 06:21:10;;;;;;;18.58;11.63;;;10.30;99.90;;;;;;4982781;28;20030;-82
2022/11/01 06:23:36;;;;;;;16.75;11.35;;;10.30;99.90;;;;;;4985924;28;20042;-83
2022/11/01 06:26:02;;;;;;;18.45;10.45;;;10.30;99.90;;;;;;4994931;28;20026;-85
2022/11/01 06:28:28;;;;;;;21.05;11.70;;;10.40;99.90;;;;;;4991642;28;20050;-82
2022/11/01 06:30:54;;;;;;;38.20;23.58;;;10.30;99.90;;;;;;4998476;28;20029;-83
2022/11/01 06:33:20;;;;;;;28.48;16.65;;;10.40;99.90;;;;;;4977465;28;20034;-82
2022/11/01 06:35:46;;;;;;;23.48;13.80;;;10.50;99.90;;;;;;4999254;28;20061;-83
2022/11/01 06:38:11;;;;;;;19.42;12.52;;;10.60;99.90;;;;;;4982981;28;20035;-82
2022/11/01 06:40:37;;;;;;;21.40;11.82;;;10.60;99.90;;;;;;4993373;28;20442;-82
2022/11/01 06:43:04;;;;;;;17.50;10.85;;;10.70;99.90;;;;;;4990133;28;20030;-82
2022/11/01 06:45:31;;;;;;;19.77;11.95;;;10.70;99.90;;;;;;5007690;28;20116;-82
2022/11/01 06:47:57;;;;;;;20.38;13.07;;;10.80;99.90;;;;;;4973506;28;20077;-81
2022/11/01 06:50:24;;;;;;;17.98;11.25;;;10.80;99.90;;;;;;4970622;28;20027;-82
2022/11/01 06:52:50;;;;;;;15.93;10.40;;;10.80;99.90;;;;;;4973490;28;20435;-83
2022/11/01 06:55:16;;;;;;;21.30;11.80;;;10.80;99.90;;;;;;4988538;28;20038;-82
2022/11/01 06:57:42;;;;;;;20.98;11.95;;;10.80;99.90;;;;;;4972968;28;20040;-83
2022/11/01 07:00:08;;;;;;;15.25;11.30;;;10.90;99.90;;;;;;4982543;28;20038;-83
2022/11/01 07:02:35;;;;;;;18.38;11.70;;;11.00;99.90;;;;;;4975490;28;20061;-82
2022/11/01 07:05:00;;;;;;;25.05;13.73;;;11.00;99.90;;;;;;4988865;28;20034;-83
2022/11/01 07:07:26;;;;;;;19.33;12.27;;;11.00;99.90;;;;;;4959312;28;20057;-83
2022/11/01 07:09:52;;;;;;;23.63;13.95;;;11.00;99.90;;;;;;4972897;28;20030;-83
2022/11/01 07:12:18;;;;;;;35.83;24.10;;;11.10;99.90;;;;;;4992789;28;20184;-82
2022/11/01 07:14:43;;;;;;;27.83;16.13;;;11.20;99.90;;;;;;4975186;28;20125;-82
2022/11/01 07:17:09;;;;;;;18.90;13.00;;;11.30;99.90;;;;;;4991073;28;20470;-84
2022/11/01 07:19:35;;;;;;;21.17;11.82;;;11.40;99.90;;;;;;4970654;28;20038;-83
2022/11/01 07:22:01;;;;;;;18.55;11.55;;;11.60;99.90;;;;;;4960222;28;20049;-84
2022/11/01 07:24:26;;;;;;;15.77;10.85;;;11.60;99.90;;;;;;4982246;28;20062;-83
2022/11/01 07:26:52;;;;;;;18.65;11.70;;;11.60;99.90;;;;;;4972749;28;20394;-83
2022/11/01 07:29:19;;;;;;;16.88;10.93;;;11.60;99.90;;;;;;4988580;28;20525;-83
2022/11/01 07:31:46;;;;;;;18.98;12.23;;;11.60;99.90;;;;;;4974201;28;20057;-83
2022/11/01 07:34:12;;;;;;;19.67;11.68;;;11.60;99.90;;;;;;4972899;28;20054;-83
2022/11/01 07:36:38;;;;;;;19.05;12.90;;;11.50;99.90;;;;;;4946620;28;20057;-82
2022/11/01 07:39:04;;;;;;;20.75;12.15;;;11.50;99.90;;;;;;5005821;28;20122;-82
2022/11/01 07:41:30;;;;;;;21.52;11.82;;;11.60;99.90;;;;;;4942960;28;20039;-83
2022/11/01 07:43:56;;;;;;;21.80;12.98;;;11.60;99.90;;;;;;4982465;28;20030;-83
2022/11/01 07:46:21;;;;;;;18.50;12.13;;;11.60;99.90;;;;;;5012252;28;20037;-82
2022/11/01 07:48:49;;;;;;;22.98;14.25;;;11.70;99.90;;;;;;4971794;28;20113;-83
2022/11/01 07:51:16;;;;;;;23.45;12.77;;;11.80;99.90;;;;;;5004011;28;20037;-82
2022/11/01 07:53:42;;;;;;;20.55;11.77;;;11.80;99.90;;;;;;4980086;28;20518;-83
2022/11/01 07:56:08;;;;;;;17.30;11.48;;;11.80;99.90;;;;;;4978777;28;20039;-83
2022/11/01 07:58:33;;;;;;;22.48;11.52;;;11.90;99.90;;;;;;4972629;28;20030;-83
2022/11/01 08:01:00;;;;;;;16.08;11.20;;;12.00;99.90;;;;;;4972549;28;20038;-83
2022/11/01 08:03:26;;;;;;;19.15;11.98;;;12.00;99.90;;;;;;5006041;28;20104;-82
2022/11/01 08:05:52;;;;;;;21.17;11.02;;;12.00;99.90;;;;;;5000482;28;20030;-82
2022/11/01 08:08:18;;;;;;;17.00;11.15;;;12.10;99.90;;;;;;5007445;28;20042;-85
2022/11/01 08:10:45;;;;;;;17.95;10.90;;;12.10;99.90;;;;;;4975363;28;20491;-81
2022/11/01 08:13:17;;;;;;;21.48;11.02;;;12.30;99.90;;;;;;4968562;28;20026;-83
2022/11/01 08:15:43;;;;;;;17.45;11.25;;;12.40;99.90;;;;;;5004628;28;20036;-83
2022/11/01 08:18:09;;;;;;;16.38;10.32;;;12.50;99.90;;;;;;4952082;28;20497;-82
2022/11/01 08:20:35;;;;;;;18.23;9.50;;;12.70;99.90;;;;;;4967092;28;20037;-83
2022/11/01 08:23:02;;;;;;;18.95;11.38;;;12.80;99.90;;;;;;4954779;28;20399;-83
2022/11/01 08:25:28;;;;;;;18.95;10.35;;;12.90;99.90;;;;;;4963943;28;20034;-82
2022/11/01 08:27:53;;;;;;;13.35;9.02;;;13.00;99.90;;;;;;4985281;28;20034;-82
2022/11/01 08:30:19;;;;;;;13.38;8.93;;;13.10;99.90;;;;;;4970323;28;20080;-84
2022/11/01 08:32:45;;;;;;;17.13;9.48;;;13.20;99.90;;;;;;4939798;28;20065;-81
2022/11/01 08:35:11;;;;;;;13.20;8.73;;;13.20;99.90;;;;;;4984206;28;20141;-82
2022/11/01 08:37:50;;;;;;;13.05;8.25;;;13.30;99.90;;;;;;4980475;28;20037;-83
2022/11/01 08:40:16;;;;;;;13.25;8.60;;;13.40;99.90;;;;;;4972421;28;20029;-82
2022/11/01 08:42:43;;;;;;;15.93;8.85;;;13.40;99.90;;;;;;5022374;28;20486;-83
2022/11/01 08:45:10;;;;;;;14.63;8.68;;;13.40;99.90;;;;;;4988100;28;20035;-82
2022/11/01 08:47:37;;;;;;;14.07;8.68;;;13.50;99.90;;;;;;4976345;28;20495;-82
2022/11/01 08:50:03;;;;;;;11.32;7.82;;;13.50;99.90;;;;;;4989754;28;20110;-82
2022/11/01 08:52:29;;;;;;;13.90;7.88;;;13.50;99.90;;;;;;4961469;28;20023;-82
2022/11/01 08:54:55;;;;;;;15.00;6.28;;;13.50;99.90;;;;;;4970624;28;20552;-82
2022/11/01 08:57:21;;;;;;;12.88;7.38;;;13.50;99.90;;;;;;4972775;28;20041;-82
2022/11/01 08:59:46;;;;;;;14.75;7.68;;;13.50;99.90;;;;;;4990798;28;20608;-82
2022/11/01 09:02:12;;;;;;;11.02;6.60;;;13.40;99.90;;;;;;4991321;28;20084;-82
2022/11/01 09:04:39;;;;;;;10.80;6.82;;;13.40;99.90;;;;;;5007025;28;20041;-82
2022/11/01 09:07:04;;;;;;;8.65;6.05;;;13.40;99.90;;;;;;4975363;28;20029;-83
2022/11/01 09:09:30;;;;;;;13.45;6.88;;;13.30;99.90;;;;;;4995844;28;20031;-83
2022/11/01 09:11:56;;;;;;;12.45;6.65;;;13.40;99.90;;;;;;4972801;28;20077;-82
2022/11/01 09:14:23;;;;;;;11.13;6.47;;;13.40;99.90;;;;;;4975768;28;20663;-83
2022/11/01 09:16:50;;;;;;;9.07;6.20;;;13.40;99.90;;;;;;4989023;28;20415;-84
2022/11/01 09:19:15;;;;;;;39.65;23.52;;;13.40;99.90;;;;;;4990969;28;20038;-83
2022/11/01 09:21:45;;;;;;;12.02;7.13;;;13.40;99.90;;;;;;4962380;28;20038;-83
2022/11/01 09:24:12;;;;;;;10.10;5.35;;;13.50;99.90;;;;;;4989830;28;20046;-84
2022/11/01 09:26:38;;;;;;;10.73;5.90;;;13.60;99.90;;;;;;4998414;28;20054;-84
2022/11/01 09:29:04;;;;;;;10.15;6.15;;;13.70;99.90;;;;;;4969246;28;20117;-83
2022/11/01 09:31:29;;;;;;;9.88;5.38;;;13.80;99.90;;;;;;4975094;28;20570;-83
2022/11/01 09:33:56;;;;;;;13.73;6.53;;;13.90;99.90;;;;;;5006571;28;20677;-83
2022/11/01 09:36:24;;;;;;;9.18;4.68;;;13.90;99.90;;;;;;4995401;28;20030;-83
2022/11/01 09:38:51;;;;;;;10.25;5.20;;;14.00;99.90;;;;;;5008748;28;20026;-82
2022/11/01 09:41:38;;;;;;;10.10;5.28;;;14.00;99.90;;;;;;4976725;28;20033;-82
2022/11/01 09:44:06;;;;;;;18.45;6.70;;;14.00;99.90;;;;;;4997166;28;20034;-81
2022/11/01 09:46:51;;;;;;;11.70;6.15;;;14.00;99.90;;;;;;4990530;28;20130;-81
2022/11/01 09:49:24;;;;;;;13.93;7.05;;;14.00;99.90;;;;;;4983173;28;20492;-81
2022/11/01 09:51:50;;;;;;;8.65;5.70;;;14.10;99.90;;;;;;4990749;28;20102;-83
2022/11/01 09:54:20;;;;;;;9.77;5.32;;;14.20;99.90;;;;;;4951533;28;20118;-83
2022/11/01 09:57:27;;;;;;;14.13;6.30;;;14.30;99.90;;;;;;4979849;28;20038;-82
2022/11/01 10:00:13;;;;;;;9.40;5.63;;;14.50;99.90;;;;;;4986843;28;20038;-83
2022/11/01 10:03:02;;;;;;;13.73;5.75;;;14.70;99.90;;;;;;5000411;28;20496;-83
2022/11/01 10:05:57;;;;;;;10.02;6.38;;;14.90;99.90;;;;;;4976293;28;20145;-83
2022/11/01 10:08:41;;;;;;;8.68;5.00;;;15.10;99.90;;;;;;4984852;28;20034;-83
2022/11/01 10:11:50;;;;;;;7.65;5.38;;;15.30;99.90;;;;;;4986897;28;20133;-83
2022/11/01 10:14:34;;;;;;;9.63;4.95;;;15.50;99.90;;;;;;4989373;28;20037;-84
2022/11/01 10:17:14;;;;;;;7.55;3.88;;;15.60;99.90;;;;;;4992419;28;20034;-83
2022/11/01 10:19:44;;;;;;;10.27;4.70;;;15.70;99.90;;;;;;4974349;28;20018;-84
2022/11/01 10:22:32;;;;;;;8.10;3.92;;;15.80;99.90;;;;;;5007256;28;20105;-84
2022/11/01 10:25:15;;;;;;;6.22;3.80;;;15.80;99.90;;;;;;4990855;28;20394;-84
2022/11/01 10:28:17;;;;;;;7.53;4.07;;;15.80;99.90;;;;;;4990588;28;20160;-82
2022/11/01 10:30:47;;;;;;;10.90;3.50;;;15.80;99.90;;;;;;4990994;28;20087;-82
2022/11/01 10:33:25;;;;;;;8.48;4.25;;;15.80;99.90;;;;;;5006999;28;20038;-82
2022/11/01 10:36:09;;;;;;;5.90;4.00;;;15.80;99.90;;;;;;4992263;28;20018;-83
2022/11/01 10:38:42;;;;;;;7.75;4.20;;;15.90;99.90;;;;;;4991223;28;20040;-83
2022/11/01 10:41:08;;;;;;;6.47;3.47;;;15.90;99.90;;;;;;4990439;28;20050;-84
2022/11/01 10:43:37;;;;;;;9.60;4.20;;;15.90;99.90;;;;;;5006323;28;20165;-84
2022/11/01 10:46:07;;;;;;;8.35;3.65;;;15.90;99.90;;;;;;4974249;28;20041;-84
2022/11/01 10:48:38;;;;;;;6.85;3.83;;;15.90;99.90;;;;;;4971059;28;20035;-83
2022/11/01 10:51:07;;;;;;;6.22;3.38;;;15.90;99.90;;;;;;4973447;28;20041;-83
2022/11/01 10:53:37;;;;;;;8.38;3.83;;;16.00;99.90;;;;;;4973311;28;20117;-83
2022/11/01 10:56:07;;;;;;;7.10;3.33;;;16.00;99.90;;;;;;4981582;28;20538;-84
2022/11/01 10:58:57;;;;;;;11.27;5.47;;;16.00;99.90;;;;;;5011329;28;20033;-82
2022/11/01 11:01:26;;;;;;;4.90;3.30;;;16.00;99.90;;;;;;4980459;28;20056;-82
2022/11/01 11:03:55;;;;;;;7.20;2.88;;;16.00;99.90;;;;;;4954787;28;20035;-82
2022/11/01 11:06:21;;;;;;;6.82;2.95;;;16.00;99.90;;;;;;4983344;28;20034;-81
2022/11/01 11:08:50;;;;;;;6.93;2.55;;;16.00;99.90;;;;;;4986826;28;20037;-83
2022/11/01 11:11:21;;;;;;;4.93;2.70;;;15.90;99.90;;;;;;4972973;28;20033;-83
2022/11/01 11:13:51;;;;;;;7.45;2.72;;;15.90;99.90;;;;;;4996143;28;20395;-82
2022/11/01 11:16:29;;;;;;;2.92;2.05;;;15.90;99.90;;;;;;4989153;28;20362;-83
2022/11/01 11:19:06;;;;;;;5.63;2.35;;;16.00;99.90;;;;;;4996998;28;20030;-83
2022/11/01 11:21:33;;;;;;;2.88;1.55;;;16.10;99.90;;;;;;5010572;28;20035;-82
2022/11/01 11:24:00;;;;;;;6.18;2.22;;;16.20;99.90;;;;;;4970145;28;20045;-83
2022/11/01 11:26:34;;;;;;;2.33;2.00;;;16.30;99.90;;;;;;5017147;28;20152;-83
2022/11/01 11:29:00;;;;;;;3.17;2.47;;;16.40;99.90;;;;;;4990854;28;20042;-82
2022/11/01 11:31:30;;;;;;;6.55;2.10;;;16.50;99.90;;;;;;4992826;28;20703;-81
2022/11/01 11:34:23;;;;;;;3.13;2.13;;;16.50;99.90;;;;;;4989678;28;20457;-83
2022/11/01 11:36:51;;;;;;;3.40;1.98;;;16.50;99.90;;;;;;5000567;28;20060;-82
2022/11/01 11:39:34;;;;;;;4.53;2.20;;;16.50;99.90;;;;;;4964441;28;20131;-83
2022/11/01 11:42:24;;;;;;;4.32;2.28;;;16.50;99.90;;;;;;4995749;28;20498;-83
2022/11/01 11:44:54;;;;;;;3.67;1.98;;;16.60;99.90;;;;;;5005888;28;20132;-82
2022/11/01 11:47:33;;;;;;;4.10;2.00;;;16.60;99.90;;;;;;4992507;28;20057;-81
2022/11/01 11:49:59;;;;;;;5.22;2.58;;;16.60;99.90;;;;;;4984680;28;20026;-83
2022/11/01 11:52:35;;;;;;;3.05;2.05;;;16.60;99.90;;;;;;4995589;28;20597;-83
2022/11/01 11:55:01;;;;;;;4.53;1.95;;;16.60;99.90;;;;;;4951570;28;20034;-83
2022/11/01 11:57:29;;;;;;;4.68;2.10;;;16.70;99.90;;;;;;4986616;28;20225;-83
2022/11/01 12:00:04;;;;;;;4.30;2.15;;;16.60;99.90;;;;;;4959203;28;20034;-83
2022/11/01 12:02:40;;;;;;;5.20;1.85;;;16.60;99.90;;;;;;4987648;28;20404;-82
2022/11/01 12:05:17;;;;;;;2.75;1.83;;;16.50;99.90;;;;;;4982561;28;20046;-83
2022/11/01 12:07:50;;;;;;;4.80;2.22;;;16.50;99.90;;;;;;4995392;28;20071;-82
2022/11/01 12:10:27;;;;;;;1.92;1.70;;;16.30;99.90;;;;;;4991997;28;20029;-83
2022/11/01 12:12:55;;;;;;;3.30;1.65;;;16.30;99.90;;;;;;4984735;28;20113;-84
2022/11/01 12:15:39;;;;;;;3.67;1.75;;;16.30;99.90;;;;;;4987972;28;20033;-81
2022/11/01 12:18:16;;;;;;;5.15;1.60;;;16.30;99.90;;;;;;4990420;28;20518;-83
2022/11/01 12:20:47;;;;;;;6.00;2.92;;;16.30;99.90;;;;;;4971805;28;20035;-83
2022/11/01 12:23:31;;;;;;;5.50;2.03;;;16.30;99.90;;;;;;4996099;28;20784;-83
2022/11/01 12:25:59;;;;;;;4.43;1.95;;;16.30;99.90;;;;;;5011772;28;20027;-82
2022/11/01 12:28:34;;;;;;;3.03;1.83;;;16.30;99.90;;;;;;4985655;28;20487;-82
2022/11/01 12:31:11;;;;;;;7.30;2.20;;;16.30;99.90;;;;;;4992096;28;20038;-84
2022/11/01 12:34:26;;;;;;;6.30;2.22;;;16.40;99.90;;;;;;4988171;28;20045;-82
2022/11/01 12:37:05;;;;;;;2.58;1.65;;;16.30;99.90;;;;;;4965307;28;20092;-80
2022/11/01 12:39:51;;;;;;;4.07;1.55;;;16.30;99.90;;;;;;4983072;28;20030;-82
2022/11/01 12:42:25;;;;;;;9.10;6.38;;;16.30;99.90;;;;;;4961870;28;20400;-85
2022/11/01 12:45:00;;;;;;;5.55;1.90;;;16.30;99.90;;;;;;4977189;28;20077;-83
2022/11/01 12:47:43;;;;;;;2.77;2.00;;;16.40;99.90;;;;;;4985724;28;20457;-82
2022/11/01 12:50:18;;;;;;;2.78;1.52;;;16.30;99.90;;;;;;4985940;28;20085;-83
2022/11/01 12:52:59;;;;;;;2.47;1.40;;;16.40;99.90;;;;;;4959315;28;20039;-82
2022/11/01 12:55:38;;;;;;;2.72;1.75;;;16.40;99.90;;;;;;4969173;28;20038;-82